createdAt,value
2024-01-20T00:02:25.092Z,99608.56
2024-01-20T00:05:28.451Z,99602.66
2024-01-20T00:08:31.804Z,99603.47
2024-01-20T00:11:36.683Z,99604.41
2024-01-20T00:14:40.094Z,99606.97
2024-01-20T00:17:43.634Z,99605.34
2024-01-20T00:20:48.129Z,99601.81
2024-01-20T00:23:51.665Z,99601.91
2024-01-20T00:26:56.794Z,99601.06
2024-01-20T00:30:01.035Z,99602.72
2024-01-20T00:33:05.827Z,99605.44
2024-01-20T00:36:10.018Z,99608.88
2024-01-20T00:39:14.020Z,99608.03
2024-01-20T00:42:18.637Z,99614.94
2024-01-20T00:45:21.699Z,99615.06
2024-01-20T00:48:25.007Z,99615.09
2024-01-20T00:51:28.251Z,99623.88
2024-01-20T00:54:31.505Z,99615.19
2024-01-20T00:57:36.110Z,99614.31
2024-01-20T01:00:40.500Z,99613.53
2024-01-20T01:03:44.225Z,99615.13
2024-01-20T01:06:47.606Z,99621.31
2024-01-20T01:09:50.802Z,99617.88
2024-01-20T01:12:55.470Z,99617.06
2024-01-20T01:15:58.644Z,99617.88
2024-01-20T01:19:01.819Z,99629.13
2024-01-20T01:22:05.564Z,99630.19
2024-01-20T01:25:10.535Z,99627.53
2024-01-20T01:28:15.376Z,99624.09
2024-01-20T01:31:20.985Z,99625.81
2024-01-20T01:34:24.312Z,99620.63
2024-01-20T01:37:27.569Z,99616.22
2024-01-20T01:40:30.839Z,99627.59
2024-01-20T01:43:35.545Z,99625.84
2024-01-20T01:46:39.545Z,99618.06
2024-01-20T01:49:43.200Z,99630.19
2024-01-20T01:52:48.898Z,99629.31
2024-01-20T01:55:54.166Z,99632.78
2024-01-20T01:58:59.844Z,99642.34
2024-01-20T02:02:03.319Z,99650.22
2024-01-20T02:05:07.122Z,99658.88
2024-01-20T02:08:10.594Z,99652.84
2024-01-20T02:11:15.658Z,99645.06
2024-01-20T02:14:21.531Z,99647.66
2024-01-20T02:17:25.427Z,99650.22
2024-01-20T02:20:28.594Z,99647.69
2024-01-20T02:23:39.125Z,99651.19
2024-01-20T02:26:42.615Z,99640.78
2024-01-20T02:29:46.225Z,99642.50
2024-01-20T02:32:49.682Z,99644.25
2024-01-20T02:35:53.394Z,99640.72
2024-01-20T02:38:58.185Z,99638.19
2024-01-20T02:42:01.841Z,99629.56
2024-01-20T02:45:05.895Z,99637.34
2024-01-20T02:48:11.234Z,99630.41
2024-01-20T02:51:14.696Z,99633.00
2024-01-20T02:54:19.471Z,99632.06
2024-01-20T02:57:22.981Z,99635.59
2024-01-20T03:00:29.384Z,99640.78
2024-01-20T03:03:32.758Z,99640.75
2024-01-20T03:06:35.960Z,99646.03
2024-01-20T03:09:40.476Z,99644.28
2024-01-20T03:12:43.975Z,99637.31
2024-01-20T03:15:47.596Z,99642.53
2024-01-20T03:18:51.276Z,99645.13
2024-01-20T03:21:54.618Z,99647.72
2024-01-20T03:24:59.364Z,99643.47
2024-01-20T03:28:02.478Z,99641.69
2024-01-20T03:31:06.126Z,99649.50
2024-01-20T03:34:10.148Z,99646.91
2024-01-20T03:37:13.357Z,99643.44
2024-01-20T03:40:18.027Z,99638.22
2024-01-20T03:43:21.295Z,99637.31
2024-01-20T03:46:25.452Z,99639.97
2024-01-20T03:49:29.420Z,99654.72
2024-01-20T03:52:32.602Z,99652.09
2024-01-20T03:55:37.484Z,99650.41
2024-01-20T03:58:41.318Z,99653.91
2024-01-20T04:01:44.555Z,99665.16
2024-01-20T04:04:47.758Z,99667.78
2024-01-20T04:07:51.078Z,99674.69
2024-01-20T04:10:55.972Z,99675.56
2024-01-20T04:13:59.247Z,99679.91
2024-01-20T04:17:02.419Z,99677.31
2024-01-20T04:20:06.948Z,99679.03
2024-01-20T04:23:10.201Z,99693.78
2024-01-20T04:26:14.853Z,99700.69
2024-01-20T04:29:18.140Z,99703.31
2024-01-20T04:32:21.205Z,99713.66
2024-01-20T04:35:24.469Z,99708.50
2024-01-20T04:38:28.369Z,99716.25
2024-01-20T04:41:33.048Z,99713.63
2024-01-20T04:44:36.141Z,99712.75
2024-01-20T04:47:39.288Z,99712.75
2024-01-20T04:50:42.570Z,99712.75
2024-01-20T04:53:45.870Z,99713.63
2024-01-20T04:56:50.626Z,99711.03
2024-01-20T04:59:53.883Z,99721.44
2024-01-20T05:02:57.073Z,99726.59
2024-01-20T05:06:00.444Z,99730.88
2024-01-20T05:09:05.930Z,99731.78
2024-01-20T05:12:10.839Z,99723.00
2024-01-20T05:15:14.108Z,99720.41
2024-01-20T05:18:17.749Z,99719.53
2024-01-20T05:21:21.067Z,99726.44
2024-01-20T05:24:24.214Z,99724.69
2024-01-20T05:27:29.048Z,99736.88
2024-01-20T05:30:32.466Z,99741.16
2024-01-20T05:33:36.083Z,99744.63
2024-01-20T05:36:39.365Z,99736.81
2024-01-20T05:39:42.662Z,99752.44
2024-01-20T05:42:47.468Z,99742.91
2024-01-20T05:45:50.539Z,99740.31
2024-01-20T05:48:53.843Z,99739.44
2024-01-20T05:51:57.054Z,99736.72
2024-01-20T05:55:00.332Z,99744.53
2024-01-20T05:58:05.203Z,99747.91
2024-01-20T06:01:11.299Z,99750.50
2024-01-20T06:04:14.536Z,99748.81
2024-01-20T06:07:17.798Z,99757.47
2024-01-20T06:10:21.111Z,99750.50
2024-01-20T06:13:25.684Z,99747.91
2024-01-20T06:16:28.781Z,99757.44
2024-01-20T06:19:31.837Z,99758.28
2024-01-20T06:22:35.123Z,99766.94
2024-01-20T06:25:38.317Z,99762.53
2024-01-20T06:28:43.111Z,99765.13
2024-01-20T06:31:46.484Z,99765.09
2024-01-20T06:34:49.654Z,99764.25
2024-01-20T06:37:52.980Z,99762.59
2024-01-20T06:40:56.320Z,99763.44
2024-01-20T06:44:00.943Z,99768.56
2024-01-20T06:47:04.187Z,99770.25
2024-01-20T06:50:09.695Z,99774.59
2024-01-20T06:53:12.882Z,99763.28
2024-01-20T06:56:16.610Z,99770.22
2024-01-20T06:59:21.093Z,99771.06
2024-01-20T07:02:24.153Z,99783.25
2024-01-20T07:05:27.420Z,99780.69
2024-01-20T07:08:30.814Z,99778.06
2024-01-20T07:11:33.988Z,99780.66
2024-01-20T07:14:38.541Z,99778.03
2024-01-20T07:17:41.656Z,99794.53
2024-01-20T07:20:46.011Z,99800.63
2024-01-20T07:23:49.111Z,99802.25
2024-01-20T07:26:52.379Z,99802.34
2024-01-20T07:29:56.954Z,99807.38
2024-01-20T07:33:00.354Z,99803.03
2024-01-20T07:36:04.862Z,99802.94
2024-01-20T07:39:08.173Z,99807.22
2024-01-20T07:42:12.118Z,99801.91
2024-01-20T07:45:16.740Z,99801.81
2024-01-20T07:48:20.654Z,99813.03
2024-01-20T07:51:24.048Z,99818.25
2024-01-20T07:54:27.294Z,99813.88
2024-01-20T07:57:30.535Z,99826.03
2024-01-20T08:00:35.222Z,99823.34
2024-01-20T08:03:38.548Z,99820.91
2024-01-20T08:06:41.762Z,99830.38
2024-01-20T08:09:45.221Z,99845.13
2024-01-20T08:12:48.388Z,99839.94
2024-01-20T08:15:53.126Z,99851.25
2024-01-20T08:18:57.530Z,99846.97
2024-01-20T08:22:00.801Z,99851.19
2024-01-20T08:25:06.145Z,99859.94
2024-01-20T08:28:12.008Z,99868.56
2024-01-20T08:31:19.819Z,99855.59
2024-01-20T08:34:23.276Z,99865.88
2024-01-20T08:37:26.702Z,99867.53
2024-01-20T08:40:29.819Z,99870.16
2024-01-20T08:43:36.168Z,99868.47
2024-01-20T08:46:40.771Z,99875.47
2024-01-20T08:49:43.947Z,99869.34
2024-01-20T08:52:47.564Z,99881.38
2024-01-20T08:55:50.712Z,99883.13
2024-01-20T08:58:53.865Z,99888.53
2024-01-20T09:01:58.407Z,99889.16
2024-01-20T09:05:04.025Z,99880.34
2024-01-20T09:08:10.748Z,99890.31
2024-01-20T09:11:14.481Z,99891.91
2024-01-20T09:14:17.748Z,99891.16
2024-01-20T09:17:22.483Z,99891.25
2024-01-20T09:20:25.916Z,99908.59
2024-01-20T09:23:29.149Z,99902.50
2024-01-20T09:26:32.426Z,99900.81
2024-01-20T09:29:39.132Z,99907.50
2024-01-20T09:32:44.570Z,99902.38
2024-01-20T09:35:48.329Z,99905.75
2024-01-20T09:38:51.572Z,99909.16
2024-01-20T09:41:55.341Z,99900.31
2024-01-20T09:44:59.625Z,99909.06
2024-01-20T09:48:05.440Z,99894.06
2024-01-20T09:51:09.727Z,99895.81
2024-01-20T09:54:14.670Z,99905.41
2024-01-20T09:57:18.585Z,99906.88
2024-01-20T10:00:26.273Z,99900.47
2024-01-20T10:03:32.628Z,99894.63
2024-01-20T10:06:36.521Z,99897.31
2024-01-20T10:09:40.467Z,99904.63
2024-01-20T10:12:43.785Z,99899.59
2024-01-20T10:15:47.606Z,99894.78
2024-01-20T10:18:58.372Z,99905.97
2024-01-20T10:22:01.739Z,99899.78
2024-01-20T10:25:08.561Z,99903.47
2024-01-20T10:28:13.454Z,99900.63
2024-01-20T10:31:16.675Z,99895.38
2024-01-20T10:34:21.876Z,99898.91
2024-01-20T10:37:31.957Z,99889.44
2024-01-20T10:40:41.615Z,99880.63
2024-01-20T10:43:55.189Z,99888.38
2024-01-20T10:47:05.240Z,99886.53
2024-01-20T10:50:13.482Z,99893.66
2024-01-20T10:53:16.842Z,99879.13
2024-01-20T10:56:20.524Z,99877.13
2024-01-20T10:59:28.493Z,99874.75
2024-01-20T11:02:31.759Z,99880.97
2024-01-20T11:05:36.637Z,99871.22
2024-01-20T11:08:51.410Z,99876.41
2024-01-20T11:12:02.097Z,99884.28
2024-01-20T11:15:12.683Z,99878.13
2024-01-20T11:18:19.699Z,99879.84
2024-01-20T11:21:24.389Z,99855.56
2024-01-20T11:24:41.616Z,99877.97
2024-01-20T11:27:48.780Z,99882.34
2024-01-20T11:30:52.290Z,99882.16
2024-01-20T11:33:55.807Z,99877.50
2024-01-20T11:37:02.575Z,99866.28
2024-01-20T11:40:09.059Z,99883.88
2024-01-20T11:43:13.454Z,99887.34
2024-01-20T11:46:17.012Z,99877.06
2024-01-20T11:49:20.322Z,99879.50
2024-01-20T11:52:25.194Z,99883.91
2024-01-20T11:55:28.370Z,99859.53
2024-01-20T11:58:32.800Z,99870.94
2024-01-20T12:01:36.132Z,99871.00
2024-01-20T12:04:39.343Z,99867.16
2024-01-20T12:07:44.090Z,99859.31
2024-01-20T12:10:47.941Z,99855.84
2024-01-20T12:13:51.950Z,99848.94
2024-01-20T12:16:55.807Z,99851.97
2024-01-20T12:19:59.268Z,99852.69
2024-01-20T12:23:04.643Z,99841.38
2024-01-20T12:26:13.666Z,99851.63
2024-01-20T12:29:17.109Z,99856.00
2024-01-20T12:32:20.697Z,99857.88
2024-01-20T12:35:23.936Z,99857.13
2024-01-20T12:38:28.664Z,99848.03
2024-01-20T12:41:31.913Z,99848.28
2024-01-20T12:44:35.276Z,99857.25
2024-01-20T12:47:38.442Z,99848.25
2024-01-20T12:50:41.636Z,99835.50
2024-01-20T12:53:46.245Z,99840.63
2024-01-20T12:56:49.697Z,99847.16
2024-01-20T12:59:53.118Z,99860.25
2024-01-20T13:02:56.461Z,99855.59
2024-01-20T13:05:59.749Z,99861.19
2024-01-20T13:09:04.619Z,99862.78
2024-01-20T13:12:10.501Z,99869.72
2024-01-20T13:15:14.370Z,99863.84
2024-01-20T13:18:17.605Z,99877.06
2024-01-20T13:21:23.492Z,99867.44
2024-01-20T13:24:30.340Z,99872.75
2024-01-20T13:27:33.647Z,99884.16
2024-01-20T13:30:37.090Z,99888.59
2024-01-20T13:33:40.639Z,99884.72
2024-01-20T13:36:43.992Z,99883.91
2024-01-20T13:39:48.784Z,99884.66
2024-01-20T13:42:52.522Z,99878.63
2024-01-20T13:45:55.868Z,99876.25
2024-01-20T13:49:00.857Z,99868.63
2024-01-20T13:52:06.333Z,99879.94
2024-01-20T13:55:11.001Z,99875.75
2024-01-20T13:58:14.451Z,99875.97
2024-01-20T14:01:22.734Z,99890.75
2024-01-20T14:04:26.503Z,99891.47
2024-01-20T14:07:29.808Z,99906.38
2024-01-20T14:10:34.633Z,99899.47
2024-01-20T14:13:37.838Z,99898.50
2024-01-20T14:16:41.657Z,99901.44
2024-01-20T14:19:45.189Z,99902.31
2024-01-20T14:22:48.380Z,99890.03
2024-01-20T14:25:54.481Z,99898.91
2024-01-20T14:28:57.704Z,99905.84
2024-01-20T14:32:03.702Z,99904.06
2024-01-20T14:35:07.914Z,99914.66
2024-01-20T14:38:11.432Z,99911.94
2024-01-20T14:41:16.245Z,99917.41
2024-01-20T14:44:19.677Z,99913.88
2024-01-20T14:47:22.851Z,99909.78
2024-01-20T14:50:26.082Z,99917.53
2024-01-20T14:53:29.226Z,99916.84
2024-01-20T14:56:37.207Z,99932.56
2024-01-20T14:59:40.728Z,99935.31
2024-01-20T15:02:43.943Z,99927.50
2024-01-20T15:05:47.289Z,99931.03
2024-01-20T15:08:50.771Z,99927.53
2024-01-20T15:11:55.387Z,99926.69
2024-01-20T15:14:58.506Z,99925.00
2024-01-20T15:18:01.775Z,99928.50
2024-01-20T15:21:06.000Z,99930.22
2024-01-20T15:24:11.943Z,99939.88
2024-01-20T15:27:16.425Z,99934.66
2024-01-20T15:30:20.002Z,99930.31
2024-01-20T15:33:32.567Z,99947.72
2024-01-20T15:36:35.929Z,99945.09
2024-01-20T15:39:39.233Z,99937.28
2024-01-20T15:42:43.924Z,99945.09
2024-01-20T15:45:47.180Z,99954.72
2024-01-20T15:48:51.107Z,99956.44
2024-01-20T15:51:54.545Z,99962.59
2024-01-20T15:54:57.820Z,99960.00
2024-01-20T15:58:02.398Z,99969.53
2024-01-20T16:01:05.993Z,99974.81
2024-01-20T16:04:12.362Z,99991.38
2024-01-20T16:07:16.491Z,99988.81
2024-01-20T16:10:20.691Z,99994.03
2024-01-20T16:13:25.728Z,99992.34
2024-01-20T16:16:32.117Z,100000.19
2024-01-20T16:19:35.300Z,99996.66
2024-01-20T16:22:38.700Z,100007.19
2024-01-20T16:25:42.724Z,100012.38
2024-01-20T16:28:47.957Z,100012.41
2024-01-20T16:31:53.145Z,100021.09
2024-01-20T16:34:56.398Z,100013.28
2024-01-20T16:37:59.593Z,100015.91
2024-01-20T16:41:03.210Z,100016.78
2024-01-20T16:44:10.499Z,100018.53
2024-01-20T16:47:13.816Z,100019.38
2024-01-20T16:50:17.879Z,100017.69
2024-01-20T16:53:21.900Z,100028.13
2024-01-20T16:56:25.327Z,100029.00
2024-01-20T16:59:30.833Z,100042.00
2024-01-20T17:02:33.908Z,100047.25
2024-01-20T17:05:37.305Z,100047.22
2024-01-20T17:08:41.611Z,100064.63
2024-01-20T17:11:46.179Z,100066.38
2024-01-20T17:14:51.461Z,100085.47
2024-01-20T17:17:54.760Z,100090.69
2024-01-20T17:20:58.117Z,100098.50
2024-01-20T17:24:01.449Z,100091.59
2024-01-20T17:27:04.751Z,100095.91
2024-01-20T17:30:10.847Z,100093.31
2024-01-20T17:33:14.264Z,100090.72
2024-01-20T17:36:17.627Z,100092.47
2024-01-20T17:39:21.859Z,100108.09
2024-01-20T17:42:25.146Z,100112.44
2024-01-20T17:45:30.413Z,100122.00
2024-01-20T17:48:33.891Z,100123.72
2024-01-20T17:51:38.169Z,100122.00
2024-01-20T17:54:41.556Z,100128.09
2024-01-20T17:57:46.406Z,100127.19
2024-01-20T18:00:51.440Z,100135.91
2024-01-20T18:03:54.877Z,100145.44
2024-01-20T18:06:58.131Z,100137.63
2024-01-20T18:10:01.398Z,100152.38
2024-01-20T18:13:06.693Z,100153.25
2024-01-20T18:16:11.439Z,100157.59
2024-01-20T18:19:15.224Z,100162.81
2024-01-20T18:22:18.486Z,100156.72
2024-01-20T18:25:22.929Z,100164.56
2024-01-20T18:28:26.173Z,100169.75
2024-01-20T18:31:31.304Z,100166.28
2024-01-20T18:34:34.568Z,100166.28
2024-01-20T18:37:39.302Z,100170.59
2024-01-20T18:40:43.505Z,100179.28
2024-01-20T18:43:46.900Z,100168.00
2024-01-20T18:46:52.223Z,100174.06
2024-01-20T18:49:55.593Z,100172.34
2024-01-20T18:52:59.114Z,100165.41
2024-01-20T18:56:02.454Z,100170.59
2024-01-20T18:59:05.745Z,100165.38
2024-01-20T19:02:10.548Z,100175.81
2024-01-20T19:05:14.117Z,100187.97
2024-01-20T19:08:17.447Z,100184.50
2024-01-20T19:11:21.776Z,100192.28
2024-01-20T19:14:25.409Z,100194.03
2024-01-20T19:17:30.220Z,100192.31
2024-01-20T19:20:38.348Z,100191.41
2024-01-20T19:23:43.289Z,100195.78
2024-01-20T19:26:46.653Z,100201.00
2024-01-20T19:29:50.296Z,100204.47
2024-01-20T19:32:56.159Z,100208.81
2024-01-20T19:35:59.547Z,100216.66
2024-01-20T19:39:05.299Z,100225.31
2024-01-20T19:42:08.829Z,100221.84
2024-01-20T19:45:12.070Z,100213.16
2024-01-20T19:48:16.625Z,100221.88
2024-01-20T19:51:19.980Z,100221.84
2024-01-20T19:54:23.217Z,100238.34
2024-01-20T19:57:27.787Z,100227.91
2024-01-20T20:00:32.296Z,100226.19
2024-01-20T20:03:37.024Z,100233.13
2024-01-20T20:06:40.138Z,100225.31
2024-01-20T20:09:43.401Z,100225.28
2024-01-20T20:12:46.641Z,100234.88
2024-01-20T20:15:50.326Z,100234.84
2024-01-20T20:18:55.344Z,100227.88
2024-01-20T20:21:58.672Z,100231.38
2024-01-20T20:25:01.987Z,100239.16
2024-01-20T20:28:06.363Z,100241.78
2024-01-20T20:31:10.973Z,100236.53
2024-01-20T20:34:16.278Z,100239.16
2024-01-20T20:37:20.245Z,100249.53
2024-01-20T20:40:23.555Z,100253.91
2024-01-20T20:43:27.555Z,100251.31
2024-01-20T20:46:34.497Z,100258.28
2024-01-20T20:49:39.223Z,100261.69
2024-01-20T20:52:45.221Z,100264.31
2024-01-20T20:55:50.273Z,100266.03
2024-01-20T20:58:53.536Z,100267.81
2024-01-20T21:01:57.194Z,100262.59
2024-01-20T21:05:01.950Z,100263.47
2024-01-20T21:08:05.661Z,100263.44
2024-01-20T21:11:10.203Z,100264.31
2024-01-20T21:14:14.421Z,100262.56
2024-01-20T21:17:17.703Z,100269.53
2024-01-20T21:20:22.728Z,100266.06
2024-01-20T21:23:26.812Z,100270.38
2024-01-20T21:26:30.698Z,100274.75
2024-01-20T21:29:34.216Z,100268.63
2024-01-20T21:32:37.940Z,100272.13
2024-01-20T21:35:43.024Z,100279.09
2024-01-20T21:38:46.800Z,100286.06
2024-01-20T21:41:50.484Z,100277.34
2024-01-20T21:45:00.687Z,100278.19
2024-01-20T21:48:04.041Z,100292.13
2024-01-20T21:51:08.650Z,100295.63
2024-01-20T21:54:14.791Z,100294.69
2024-01-20T21:57:18.040Z,100301.69
2024-01-20T22:00:21.977Z,100300.84
2024-01-20T22:03:25.687Z,100305.19
2024-01-20T22:06:30.824Z,100307.81
2024-01-20T22:09:34.000Z,100313.00
2024-01-20T22:12:37.239Z,100312.97
2024-01-20T22:15:40.648Z,100313.88
2024-01-20T22:18:44.057Z,100326.06
2024-01-20T22:21:48.748Z,100334.78
2024-01-20T22:24:52.423Z,100334.75
2024-01-20T22:27:56.580Z,100336.47
2024-01-20T22:31:00.430Z,100330.41
2024-01-20T22:34:03.900Z,100332.13
2024-01-20T22:37:08.847Z,100340.84
2024-01-20T22:40:13.951Z,100341.69
2024-01-20T22:43:17.373Z,100341.66
2024-01-20T22:46:20.680Z,100346.91
2024-01-20T22:49:24.119Z,100349.53
2024-01-20T22:52:29.682Z,100353.03
2024-01-20T22:55:33.126Z,100346.94
2024-01-20T22:58:38.944Z,100346.91
2024-01-20T23:01:42.569Z,100352.13
2024-01-20T23:04:46.130Z,100354.72
2024-01-20T23:07:53.388Z,100349.53
2024-01-20T23:10:56.725Z,100353.81
2024-01-20T23:14:00.566Z,100351.25
2024-01-20T23:17:04.965Z,100355.63
2024-01-20T23:20:11.975Z,100351.25
2024-01-20T23:23:16.772Z,100346.91
2024-01-20T23:26:20.408Z,100355.63
2024-01-20T23:29:23.528Z,100369.56
2024-01-20T23:32:27.198Z,100365.22
2024-01-20T23:35:31.836Z,100368.69
2024-01-20T23:38:36.407Z,100370.38
2024-01-20T23:41:39.842Z,100371.28
2024-01-20T23:44:43.324Z,100367.81
2024-01-20T23:47:49.152Z,100372.13
2024-01-20T23:50:52.324Z,100383.44
2024-01-20T23:53:56.906Z,100379.03
2024-01-20T23:57:02.003Z,100379.06
